Time;durP1;ratioP1;P1;durP2;ratioP2;P2;SDS_P1;SDS_P2;PMS_P1;PMS_P2;Temp;Humidity;BMP_temperature;BMP_pressure;BME280_temperature;BME280_humidity;BME280_pressure;Samples;Min_cycle;Max_cycle;Signal;HPM_P1;HPM_P2
2022/03/26 00:00:44;;;;;;;7.37;5.10;;;;;;;3.31;80.88;99461.91;4974046;28;20118;-68
2022/03/26 00:03:09;;;;;;;6.13;4.97;;;;;;;3.30;80.03;99454.97;4973807;28;20133;-68
2022/03/26 00:05:35;;;;;;;12.00;6.00;;;;;;;3.27;80.54;99443.91;4956448;28;20402;-66
2022/03/26 00:08:01;;;;;;;8.57;5.10;;;;;;;3.33;79.83;99457.31;4974235;28;20031;-70
2022/03/26 00:10:27;;;;;;;7.50;5.23;;;;;;;3.36;79.77;99454.38;4975798;28;20459;-68
2022/03/26 00:12:52;;;;;;;9.53;5.50;;;;;;;3.29;79.05;99437.53;4974048;28;20050;-67
2022/03/26 00:15:19;;;;;;;9.23;5.47;;;;;;;3.24;78.66;99436.34;4973831;28;20658;-67
2022/03/26 00:17:45;;;;;;;8.17;4.77;;;;;;;3.19;79.02;99431.50;4973558;28;20038;-66
2022/03/26 00:20:12;;;;;;;5.70;4.80;;;;;;;3.19;79.07;99426.25;4974162;28;20285;-68
2022/03/26 00:22:37;;;;;;;6.90;4.77;;;;;;;3.10;78.77;99429.75;4973954;28;20042;-67
2022/03/26 00:25:04;;;;;;;10.67;6.23;;;;;;;3.01;78.88;99420.94;4973814;28;20329;-71
2022/03/26 00:27:30;;;;;;;11.80;5.37;;;;;;;2.99;79.06;99415.00;4940375;28;20056;-68
2022/03/26 00:29:56;;;;;;;6.90;4.53;;;;;;;3.01;78.00;99413.06;4973723;28;20284;-69
2022/03/26 00:32:22;;;;;;;6.67;4.43;;;;;;;2.97;78.00;99401.19;4973427;28;20305;-67
2022/03/26 00:34:48;;;;;;;10.40;5.20;;;;;;;2.94;78.33;99390.13;4974002;28;20497;-67
2022/03/26 00:37:14;;;;;;;7.13;4.53;;;;;;;2.93;78.40;99388.47;4973605;28;20302;-67
2022/03/26 00:39:40;;;;;;;6.50;3.60;;;;;;;2.94;77.35;99387.50;4973460;28;20369;-66
2022/03/26 00:42:09;;;;;;;8.93;4.57;;;;;;;2.89;77.72;99373.94;4974383;28;20090;-66
2022/03/26 00:44:38;;;;;;;;;;;;;;;2.94;77.54;99375.19;4974624;28;20090;-65
2022/03/26 00:47:04;;;;;;;6.87;3.50;;;;;;;2.90;77.38;99370.38;4973067;28;20301;-67
2022/03/26 00:49:30;;;;;;;11.23;4.67;;;;;;;2.89;77.51;99360.78;4973455;28;20286;-68
2022/03/26 00:51:56;;;;;;;7.83;4.53;;;;;;;2.90;77.18;99362.47;4973452;28;20293;-67
2022/03/26 00:54:22;;;;;;;5.07;3.60;;;;;;;2.90;76.98;99346.69;4973214;28;20035;-66
2022/03/26 00:56:47;;;;;;;4.50;3.17;;;;;;;2.93;76.49;99347.22;4973246;28;20410;-66
2022/03/26 00:59:13;;;;;;;6.37;3.77;;;;;;;2.99;76.49;99348.44;4973041;28;20302;-67
2022/03/26 01:01:38;;;;;;;5.70;3.30;;;;;;;2.99;75.89;99336.09;4973103;28;20434;-67
2022/03/26 01:04:04;;;;;;;6.63;3.40;;;;;;;2.95;75.45;99337.38;4973157;28;20041;-66
2022/03/26 01:06:30;;;;;;;8.27;3.33;;;;;;;2.98;74.44;99317.84;4972825;28;20134;-66
2022/03/26 01:08:56;;;;;;;5.53;3.00;;;;;;;3.00;74.17;99327.25;4973231;28;20084;-67
2022/03/26 01:11:21;;;;;;;13.33;5.13;;;;;;;3.06;73.91;99323.19;4955403;28;20034;-67
2022/03/26 01:13:48;;;;;;;7.67;2.60;;;;;;;3.08;73.04;99335.19;4972942;28;20510;-67
2022/03/26 01:16:14;;;;;;;8.40;3.37;;;;;;;3.08;73.32;99310.69;4973879;28;20081;-66
2022/03/26 01:18:40;;;;;;;8.17;2.77;;;;;;;3.05;73.22;99311.00;4972983;28;20812;-69
2022/03/26 01:21:06;;;;;;;5.43;2.90;;;;;;;2.99;72.92;99299.28;4973040;28;20039;-68
2022/03/26 01:23:32;;;;;;;6.63;3.13;;;;;;;2.91;73.31;99293.97;4973101;28;20320;-67
2022/03/26 01:25:58;;;;;;;4.73;2.60;;;;;;;2.84;73.01;99281.53;4972917;28;20516;-67
2022/03/26 01:28:24;;;;;;;5.87;3.73;;;;;;;2.78;73.62;99288.22;4972735;28;20361;-66
2022/03/26 01:30:50;;;;;;;5.33;2.80;;;;;;;2.70;74.03;99275.00;4955603;28;20282;-66
2022/03/26 01:33:15;;;;;;;5.50;3.03;;;;;;;2.70;73.92;99272.38;4972900;28;20721;-67
2022/03/26 01:35:41;;;;;;;6.40;3.00;;;;;;;2.70;73.77;99273.19;4972937;28;20138;-68
2022/03/26 01:38:07;;;;;;;9.60;3.30;;;;;;;2.70;74.12;99265.31;4972880;28;20049;-66
2022/03/26 01:40:36;;;;;;;4.57;3.37;;;;;;;2.66;74.53;99282.34;4972710;28;20060;-67
2022/03/26 01:43:06;;;;;;;8.70;3.23;;;;;;;2.58;74.30;99252.50;4955366;28;20657;-68
2022/03/26 01:45:31;;;;;;;12.80;3.50;;;;;;;2.57;73.95;99249.06;4972935;28;20057;-66
2022/03/26 01:47:58;;;;;;;8.60;2.70;;;;;;;2.58;74.48;99245.47;4972837;28;20262;-67
2022/03/26 01:50:28;;;;;;;4.70;2.57;;;;;;;2.54;74.59;99240.66;4972522;28;20050;-68
2022/03/26 01:52:54;;;;;;;7.00;3.23;;;;;;;2.48;74.76;99239.44;4972936;28;20437;-67
2022/03/26 01:55:20;;;;;;;5.63;3.00;;;;;;;2.42;74.99;99224.28;4972533;28;20283;-66
2022/03/26 01:57:46;;;;;;;3.90;3.50;;;;;;;2.29;74.74;99215.91;4972975;28;20042;-70
2022/03/26 02:00:12;;;;;;;11.20;3.60;;;;;;;2.34;75.33;99219.78;4973079;28;20270;-66
2022/03/26 02:02:43;;;;;;;4.40;2.90;;;;;;;2.27;74.35;99217.84;4972945;28;20039;-66
2022/03/26 02:05:13;;;;;;;6.00;3.33;;;;;;;2.22;74.99;99215.69;4972618;28;20269;-65
2022/03/26 02:07:40;;;;;;;4.17;2.20;;;;;;;2.10;75.14;99208.97;4972629;28;20266;-67
2022/03/26 02:10:09;;;;;;;7.33;2.80;;;;;;;2.03;74.96;99216.63;4972492;28;20633;-65
2022/03/26 02:12:36;;;;;;;5.83;2.70;;;;;;;1.99;75.37;99209.16;4955298;28;20305;-65
2022/03/26 02:15:03;;;;;;;4.23;2.63;;;;;;;1.96;74.86;99205.03;4972590;28;20334;-66
2022/03/26 02:17:28;;;;;;;3.83;2.50;;;;;;;1.90;75.03;99189.88;4972527;28;20276;-66
2022/03/26 02:19:56;;;;;;;3.50;2.23;;;;;;;1.86;75.26;99188.50;4972541;28;20258;-66
2022/03/26 02:22:23;;;;;;;11.53;3.67;;;;;;;1.75;74.95;99180.84;4956427;28;20397;-66
2022/03/26 02:24:49;;;;;;;7.93;2.97;;;;;;;1.77;75.31;99184.16;4976329;28;20357;-69
2022/03/26 02:27:15;;;;;;;8.43;2.37;;;;;;;1.74;75.56;99189.69;4976229;28;20270;-66
2022/03/26 02:29:41;;;;;;;3.50;2.10;;;;;;;1.74;75.04;99184.44;4976254;28;20749;-66
2022/03/26 02:32:07;;;;;;;5.63;2.50;;;;;;;1.78;74.77;99188.41;4976144;28;20544;-66
2022/03/26 02:34:32;;;;;;;4.27;2.20;;;;;;;1.80;74.54;99168.94;4976068;28;20066;-67
2022/03/26 02:36:59;;;;;;;4.03;2.17;;;;;;;1.64;74.35;99146.88;4975686;28;20317;-69
2022/03/26 02:39:25;;;;;;;9.23;2.57;;;;;;;1.82;74.09;99181.91;4975837;28;20122;-68
2022/03/26 02:41:55;;;;;;;3.92;1.58;;;;;;;1.82;74.62;99169.59;4975699;28;20337;-67
2022/03/26 02:44:24;;;;;;;5.83;2.67;;;;;;;1.79;74.60;99169.06;4943197;28;20069;-67
2022/03/26 02:46:50;;;;;;;4.53;1.93;;;;;;;1.74;74.20;99168.69;4975438;28;20369;-66
2022/03/26 02:49:16;;;;;;;5.20;1.83;;;;;;;1.66;74.43;99161.50;4975441;28;20686;-65
2022/03/26 02:51:42;;;;;;;3.07;1.70;;;;;;;1.65;74.59;99157.25;4975164;28;20045;-69
2022/03/26 02:54:18;;;;;;;4.50;2.30;;;;;;;1.61;74.43;99158.50;4958547;28;20414;-66
2022/03/26 02:56:46;;;;;;;2.23;1.50;;;;;;;1.63;74.46;99153.09;4975496;28;20281;-66
2022/03/26 02:59:12;;;;;;;1.90;1.48;;;;;;;1.60;74.39;99145.53;4975341;28;20619;-66
2022/03/26 03:01:38;;;;;;;5.37;1.77;;;;;;;1.60;74.10;99145.53;4975200;28;20051;-66
2022/03/26 03:04:04;;;;;;;4.63;1.90;;;;;;;1.47;73.73;99125.72;4974969;28;20147;-68
2022/03/26 03:06:31;;;;;;;3.17;1.90;;;;;;;1.60;73.89;99132.41;4974975;28;20039;-65
2022/03/26 03:08:57;;;;;;;3.00;1.30;;;;;;;1.59;73.38;99133.38;4957972;28;20277;-65
2022/03/26 03:11:23;;;;;;;3.40;2.30;;;;;;;1.70;73.09;99131.38;4975019;28;20271;-64
2022/03/26 03:13:48;;;;;;;5.27;1.60;;;;;;;1.72;73.00;99121.56;4957671;28;20043;-65
2022/03/26 03:16:14;;;;;;;6.73;1.97;;;;;;;1.77;72.92;99116.72;4975153;28;20113;-66
2022/03/26 03:18:40;;;;;;;3.53;1.70;;;;;;;1.82;72.18;99103.97;4974683;28;20046;-69
2022/03/26 03:21:06;;;;;;;5.97;2.20;;;;;;;1.85;72.21;99105.47;4974938;28;20050;-66
2022/03/26 03:23:32;;;;;;;3.57;1.47;;;;;;;1.88;72.15;99105.19;4974967;28;20054;-66
2022/03/26 03:25:57;;;;;;;4.10;1.73;;;;;;;1.90;72.62;99098.00;4975030;28;20113;-68
2022/03/26 03:28:23;;;;;;;5.00;1.63;;;;;;;1.94;72.44;99101.13;4975001;28;20045;-64
2022/03/26 03:30:48;;;;;;;2.63;1.40;;;;;;;1.86;72.21;99083.50;4974755;28;20066;-66
2022/03/26 03:33:14;;;;;;;4.30;2.37;;;;;;;1.86;72.17;99089.59;4974411;28;20046;-65
2022/03/26 03:35:40;;;;;;;4.83;1.63;;;;;;;1.89;72.75;99098.97;4974693;28;20038;-67
2022/03/26 03:38:05;;;;;;;5.07;2.03;;;;;;;1.90;72.00;99090.09;4976939;28;20086;-68
2022/03/26 03:40:31;;;;;;;3.20;1.67;;;;;;;1.95;71.33;99093.13;4975996;28;20042;-66
2022/03/26 03:43:00;;;;;;;2.55;1.70;;;;;;;1.94;71.84;99096.72;4974440;28;20548;-68
2022/03/26 03:45:25;;;;;;;7.33;2.20;;;;;;;1.92;71.00;99098.66;4974452;28;20035;-67
2022/03/26 03:47:51;;;;;;;3.40;1.70;;;;;;;1.95;71.35;99103.63;4974365;28;20042;-65
2022/03/26 03:50:16;;;;;;;5.30;1.67;;;;;;;1.92;70.51;99098.66;4974193;28;20062;-67
2022/03/26 03:52:42;;;;;;;4.70;1.60;;;;;;;1.89;70.69;99085.84;4974293;28;20442;-71
2022/03/26 03:55:07;;;;;;;9.90;2.63;;;;;;;1.97;70.90;99101.66;4974584;28;20039;-65
2022/03/26 03:57:34;;;;;;;5.03;1.80;;;;;;;1.99;71.13;99101.50;4974407;28;20043;-67
2022/03/26 04:00:00;;;;;;;4.17;2.23;;;;;;;1.98;70.30;99087.56;4974122;28;20041;-65
2022/03/26 04:02:26;;;;;;;2.00;1.47;;;;;;;1.98;70.07;99077.06;4974060;28;20688;-66
2022/03/26 04:04:53;;;;;;;5.90;1.73;;;;;;;2.00;69.88;99080.34;4956452;28;20278;-68
2022/03/26 04:07:18;;;;;;;3.37;1.60;;;;;;;2.02;70.07;99083.66;4973612;28;20035;-65
2022/03/26 04:09:44;;;;;;;4.83;1.50;;;;;;;2.00;69.68;99069.84;4974742;28;20327;-68
2022/03/26 04:12:10;;;;;;;4.10;1.37;;;;;;;2.04;69.55;99065.16;4956720;28;20065;-69
2022/03/26 04:14:38;;;;;;;3.47;1.27;;;;;;;2.01;68.63;99076.75;4973851;28;20046;-69
2022/03/26 04:17:05;;;;;;;2.80;1.70;;;;;;;2.02;68.60;99072.34;4956804;28;20320;-68
2022/03/26 04:19:30;;;;;;;3.70;1.33;;;;;;;2.08;68.49;99067.34;4973848;28;20270;-68
2022/03/26 04:21:56;;;;;;;5.00;2.33;;;;;;;2.03;67.61;99064.34;4956761;28;20274;-68
2022/03/26 04:24:22;;;;;;;3.83;1.70;;;;;;;2.04;67.33;99065.97;4974416;28;20073;-63
2022/03/26 04:26:47;;;;;;;9.17;3.03;;;;;;;2.09;66.75;99068.97;4974113;28;20065;-70
2022/03/26 04:29:13;;;;;;;3.30;1.20;;;;;;;2.13;66.66;99054.56;4973818;28;20073;-69
2022/03/26 04:31:38;;;;;;;5.80;1.30;;;;;;;2.11;65.77;99055.69;4973597;28;20039;-66
2022/03/26 04:34:04;;;;;;;3.90;1.57;;;;;;;2.10;66.14;99054.06;4973638;28;20570;-67
2022/03/26 04:36:30;;;;;;;4.97;1.73;;;;;;;2.09;65.30;99062.91;4973610;28;20462;-66
2022/03/26 04:38:57;;;;;;;4.13;1.20;;;;;;;2.08;66.03;99048.13;4973630;28;20449;-67
2022/03/26 04:41:22;;;;;;;2.67;1.40;;;;;;;2.11;65.85;99046.03;4973830;28;20414;-66
2022/03/26 04:43:49;;;;;;;4.17;1.70;;;;;;;2.08;65.48;99048.94;4956226;28;20298;-69
2022/03/26 04:46:14;;;;;;;7.20;1.53;;;;;;;2.08;65.37;99069.97;4972935;28;20529;-66
2022/03/26 04:48:41;;;;;;;3.93;1.90;;;;;;;2.07;66.23;99047.31;4973370;28;20297;-65
2022/03/26 04:51:07;;;;;;;3.73;1.77;;;;;;;2.05;66.21;99041.38;4973275;28;20043;-65
2022/03/26 04:53:32;;;;;;;7.43;1.50;;;;;;;2.05;66.38;99048.44;4973304;28;20425;-66
2022/03/26 04:55:58;;;;;;;5.00;2.03;;;;;;;2.01;66.33;99055.75;4973806;28;20043;-66
2022/03/26 04:58:23;;;;;;;4.97;1.97;;;;;;;1.95;66.01;99040.59;4973760;28;20406;-65
2022/03/26 05:00:49;;;;;;;7.50;1.80;;;;;;;1.96;66.49;99047.50;4973122;28;20490;-66
2022/03/26 05:03:14;;;;;;;6.53;1.93;;;;;;;1.96;65.77;99042.25;4973264;28;20041;-66
2022/03/26 05:05:40;;;;;;;7.33;2.53;;;;;;;1.78;66.13;99013.38;4973212;28;20049;-66
2022/03/26 05:08:05;;;;;;;6.77;2.93;;;;;;;1.93;66.26;99031.22;4973254;28;20030;-66
2022/03/26 05:10:31;;;;;;;5.67;1.93;;;;;;;1.84;65.68;99028.53;4973736;28;20145;-66
2022/03/26 05:12:58;;;;;;;6.47;2.20;;;;;;;1.81;66.29;99028.00;4973233;28;20050;-66
2022/03/26 05:15:27;;;;;;;10.60;2.10;;;;;;;1.77;66.65;99024.03;4972894;28;20344;-66
2022/03/26 05:17:53;;;;;;;4.50;1.67;;;;;;;1.79;66.24;99019.47;4973055;28;20304;-66
2022/03/26 05:20:19;;;;;;;7.20;2.27;;;;;;;1.88;66.52;99012.47;4972871;28;20486;-68
2022/03/26 05:22:46;;;;;;;5.97;1.97;;;;;;;2.03;64.95;99011.00;4973135;28;20270;-67
2022/03/26 05:25:12;;;;;;;6.00;1.83;;;;;;;2.04;65.15;99002.13;4973501;28;20301;-66
2022/03/26 05:27:43;;;;;;;6.73;2.20;;;;;;;2.28;64.55;99025.97;4973695;28;20263;-66
2022/03/26 05:30:09;;;;;;;5.40;1.73;;;;;;;2.39;64.29;99030.16;4972694;28;20273;-68
2022/03/26 05:32:38;;;;;;;4.53;1.93;;;;;;;2.37;64.76;99019.81;4973346;28;20385;-70
2022/03/26 05:35:06;;;;;;;4.57;2.25;;;;;;;2.37;64.14;99022.44;4976507;28;20417;-67
2022/03/26 05:37:32;;;;;;;5.28;1.83;;;;;;;2.38;64.15;99020.63;4974617;28;20035;-67
2022/03/26 05:39:57;;;;;;;9.10;2.33;;;;;;;2.28;64.60;99012.00;4974853;28;20463;-67
2022/03/26 05:42:23;;;;;;;10.73;2.37;;;;;;;2.27;65.18;99026.09;4975289;28;20152;-65
2022/03/26 05:44:49;;;;;;;8.97;2.23;;;;;;;2.29;65.30;99016.28;4975190;28;20061;-65
2022/03/26 05:47:15;;;;;;;4.93;2.93;;;;;;;2.23;65.02;99001.13;4977187;28;20777;-63
2022/03/26 05:49:40;;;;;;;10.40;3.27;;;;;;;2.27;65.24;99019.06;4957424;28;20118;-66
2022/03/26 05:52:06;;;;;;;4.93;1.83;;;;;;;2.39;64.92;99022.28;4954998;28;20042;-70
2022/03/26 05:54:32;;;;;;;11.63;2.77;;;;;;;2.35;64.98;98989.41;4974569;28;20051;-66
2022/03/26 05:56:57;;;;;;;7.13;1.83;;;;;;;2.61;64.15;99013.91;4974127;28;20125;-66
2022/03/26 05:59:24;;;;;;;17.27;3.20;;;;;;;2.64;64.32;99005.72;4976447;28;20086;-68
2022/03/26 06:01:54;;;;;;;8.17;2.90;;;;;;;2.77;64.59;99021.06;4975908;28;20413;-67
2022/03/26 06:04:20;;;;;;;5.57;1.97;;;;;;;2.59;64.37;99018.47;4976904;28;20288;-65
2022/03/26 06:06:48;;;;;;;5.37;2.73;;;;;;;2.45;64.83;99022.50;4976454;28;20282;-66
2022/03/26 06:09:13;;;;;;;9.37;2.67;;;;;;;2.32;66.34;99037.00;4976918;28;20274;-66
2022/03/26 06:11:38;;;;;;;7.20;2.23;;;;;;;2.08;68.13;99035.00;4976479;28;20324;-65
2022/03/26 06:14:04;;;;;;;5.60;2.47;;;;;;;1.97;69.28;99027.31;4976066;28;20042;-66
2022/03/26 06:16:30;;;;;;;10.07;2.63;;;;;;;1.80;70.51;99026.38;4977117;28;20100;-68
2022/03/26 06:18:55;;;;;;;9.10;2.63;;;;;;;1.82;71.07;99020.00;4977150;28;20031;-67
2022/03/26 06:21:21;;;;;;;4.57;2.13;;;;;;;1.76;71.56;99025.00;4977579;28;20533;-65
2022/03/26 06:23:46;;;;;;;6.20;2.67;;;;;;;1.69;71.99;99019.50;4976980;28;20041;-63
2022/03/26 06:26:12;;;;;;;8.43;2.90;;;;;;;1.59;74.70;99018.75;4977754;28;20493;-65
2022/03/26 06:28:38;;;;;;;9.30;2.40;;;;;;;1.53;73.95;99020.19;4976880;28;20030;-63
2022/03/26 06:31:04;;;;;;;6.60;1.97;;;;;;;1.54;74.58;99021.84;4976537;28;20042;-68
2022/03/26 06:33:29;;;;;;;9.23;2.60;;;;;;;1.55;73.97;99006.91;4960640;28;20097;-68
2022/03/26 06:35:55;;;;;;;7.30;2.30;;;;;;;1.64;74.72;99003.38;4979996;28;20379;-68
2022/03/26 06:38:21;;;;;;;5.43;1.90;;;;;;;1.52;74.96;99009.84;4978902;28;20046;-65
2022/03/26 06:40:48;;;;;;;7.27;2.47;;;;;;;1.45;74.69;98998.28;4970982;28;20131;-69
2022/03/26 06:43:14;;;;;;;7.03;2.20;;;;;;;1.54;75.04;98990.34;4959356;28;20080;-71
2022/03/26 06:45:43;;;;;;;9.77;2.83;;;;;;;1.61;74.84;99006.31;4977039;28;20384;-70
2022/03/26 06:48:09;;;;;;;5.73;2.13;;;;;;;1.50;74.88;98996.88;4974280;28;20329;-69
2022/03/26 06:50:35;;;;;;;9.20;2.40;;;;;;;1.48;75.86;98995.38;4975660;28;20694;-72
2022/03/26 06:53:00;;;;;;;5.43;1.97;;;;;;;1.53;75.68;99001.00;4942109;28;20571;-71
2022/03/26 06:55:26;;;;;;;3.97;2.40;;;;;;;1.53;75.63;98993.94;4959202;28;20270;-64
2022/03/26 06:57:52;;;;;;;6.33;2.60;;;;;;;1.63;75.49;98999.13;4975611;28;20438;-64
2022/03/26 07:00:18;;;;;;;6.87;2.43;;;;;;;1.70;74.86;98996.72;4975489;28;20071;-64
2022/03/26 07:02:44;;;;;;;7.07;2.43;;;;;;;1.74;75.03;98990.22;4975493;28;20282;-68
2022/03/26 07:05:11;;;;;;;6.63;1.97;;;;;;;1.68;74.68;98996.88;4975329;28;20821;-65
2022/03/26 07:07:38;;;;;;;2.97;1.80;;;;;;;1.70;75.05;98983.59;4974735;28;20038;-66
2022/03/26 07:10:08;;;;;;;9.57;3.60;;;;;;;1.69;75.38;99002.94;4975258;28;20265;-66
2022/03/26 07:12:34;;;;;;;5.10;1.80;;;;;;;1.73;75.27;98993.78;4959151;28;20396;-67
2022/03/26 07:15:00;;;;;;;4.03;1.90;;;;;;;1.77;74.62;98989.91;4976212;28;20313;-68
2022/03/26 07:17:26;;;;;;;9.37;2.87;;;;;;;1.74;75.58;98998.91;4975806;28;20360;-68
2022/03/26 07:19:52;;;;;;;9.17;2.00;;;;;;;1.39;75.23;98955.09;4976194;28;20027;-71
2022/03/26 07:22:18;;;;;;;9.37;2.20;;;;;;;1.70;75.53;98994.91;4976815;28;20481;-65
2022/03/26 07:24:44;;;;;;;6.40;2.23;;;;;;;1.77;75.48;98992.53;4976055;28;20069;-66
2022/03/26 07:27:10;;;;;;;5.17;2.30;;;;;;;1.74;75.60;98980.53;4975574;28;20266;-65
2022/03/26 07:29:39;;;;;;;7.70;2.30;;;;;;;1.82;75.34;99006.03;4974739;28;20800;-67
2022/03/26 07:32:09;;;;;;;9.73;2.50;;;;;;;1.67;76.01;98976.03;4975212;28;20130;-66
2022/03/26 07:34:35;;;;;;;8.40;2.03;;;;;;;1.75;76.43;98991.88;4975278;28;20049;-68
2022/03/26 07:37:01;;;;;;;4.43;1.77;;;;;;;1.83;76.22;98977.00;4957393;28;20349;-68
2022/03/26 07:39:27;;;;;;;5.40;2.07;;;;;;;1.92;75.97;98977.06;4957195;28;20138;-68
2022/03/26 07:41:53;;;;;;;3.73;1.90;;;;;;;1.86;76.12;98974.09;4957348;28;20055;-66
2022/03/26 07:44:19;;;;;;;7.57;2.13;;;;;;;1.82;76.74;98971.91;4957078;28;20047;-68
2022/03/26 07:46:46;;;;;;;4.23;3.30;;;;;;;1.71;77.46;98972.13;4974604;28;20466;-65
2022/03/26 07:49:12;;;;;;;7.70;2.30;;;;;;;1.75;77.15;98986.63;4974578;28;20262;-67
2022/03/26 07:51:37;;;;;;;6.00;1.97;;;;;;;1.72;77.43;98966.72;4974320;28;20030;-68
2022/03/26 07:54:03;;;;;;;8.00;2.60;;;;;;;1.78;77.48;98988.94;4974118;28;20403;-64
2022/03/26 07:56:29;;;;;;;4.77;3.10;;;;;;;1.85;77.94;98975.06;4974422;28;20035;-63
2022/03/26 07:58:57;;;;;;;4.73;1.80;;;;;;;2.00;78.07;98988.47;4974441;28;20297;-67
2022/03/26 08:01:23;;;;;;;12.02;2.58;;;;;;;2.02;78.13;98983.06;4974576;28;20528;-69
2022/03/26 08:03:53;;;;;;;7.10;2.70;;;;;;;2.03;77.46;98988.19;4974541;28;20042;-68
2022/03/26 08:06:21;;;;;;;6.97;2.27;;;;;;;2.00;77.84;98990.25;4974150;28;20042;-66
2022/03/26 08:08:47;;;;;;;6.10;3.00;;;;;;;2.01;77.80;98989.28;4974135;28;20366;-71
2022/03/26 08:11:12;;;;;;;7.03;2.33;;;;;;;1.97;77.34;98980.91;4974251;28;20728;-69
2022/03/26 08:13:38;;;;;;;6.07;1.60;;;;;;;2.01;77.58;98992.75;4974216;28;20501;-68
2022/03/26 08:16:03;;;;;;;3.83;2.30;;;;;;;2.02;77.87;98993.56;4973860;28;20046;-65
2022/03/26 08:18:29;;;;;;;4.23;1.60;;;;;;;1.91;76.64;99005.13;4973833;28;20042;-68
2022/03/26 08:20:55;;;;;;;3.77;1.50;;;;;;;1.76;77.97;99004.84;4973007;28;20093;-67
2022/03/26 08:23:21;;;;;;;5.90;1.80;;;;;;;1.79;78.41;99001.09;4956317;28;20081;-66
2022/03/26 08:28:31;;;;;;;4.10;1.83;;;;;;;1.78;77.38;99013.38;4973824;28;20772;-65
2022/03/26 08:30:56;;;;;;;3.87;1.83;;;;;;;1.78;78.18;99004.69;4955889;28;20266;-63
2022/03/26 08:33:22;;;;;;;5.50;2.53;;;;;;;1.84;77.93;99012.78;4956057;28;20041;-63
2022/03/26 08:35:47;;;;;;;2.87;1.77;;;;;;;1.87;77.57;99016.91;4973358;28;20034;-64
2022/03/26 08:38:13;;;;;;;2.10;1.50;;;;;;;1.83;77.45;99011.13;4973844;28;20038;-61
2022/03/26 08:40:39;;;;;;;12.17;1.90;;;;;;;1.76;77.78;99004.03;4973495;28;20398;-62
2022/03/26 08:43:06;;;;;;;3.93;1.60;;;;;;;1.75;77.42;99018.94;4973838;28;20062;-68
2022/03/26 08:45:32;;;;;;;2.67;2.03;;;;;;;1.59;76.43;99018.75;4973736;28;20506;-72
2022/03/26 08:47:58;;;;;;;6.40;1.80;;;;;;;1.66;77.20;99017.19;4973426;28;20650;-68
2022/03/26 08:50:24;;;;;;;2.67;1.73;;;;;;;1.71;76.07;99021.97;4973275;28;20274;-65
2022/03/26 08:52:50;;;;;;;2.03;1.80;;;;;;;1.75;75.85;99037.31;4973390;28;20035;-66
2022/03/26 08:55:18;;;;;;;2.70;1.40;;;;;;;1.85;75.71;99027.56;4973101;28;20035;-67
2022/03/26 08:57:44;;;;;;;2.07;1.50;;;;;;;1.83;75.68;99026.88;4956215;28;20283;-67
2022/03/26 09:00:11;;;;;;;8.80;1.80;;;;;;;1.83;76.83;99036.56;4973397;28;20787;-67
2022/03/26 09:02:38;;;;;;;2.87;1.73;;;;;;;1.78;77.40;99050.13;4972897;28;20336;-66
2022/03/26 09:05:07;;;;;;;4.50;1.27;;;;;;;1.76;76.74;99046.00;4973157;28;20289;-67
2022/03/26 09:07:33;;;;;;;2.97;1.40;;;;;;;1.74;76.79;99038.28;4973094;28;20274;-67
2022/03/26 09:09:59;;;;;;;2.57;1.33;;;;;;;1.88;75.76;99034.31;4955646;28;20278;-64
2022/03/26 09:12:24;;;;;;;1.83;1.50;;;;;;;1.78;75.21;99034.38;4973133;28;20313;-63
2022/03/26 09:14:50;;;;;;;1.60;1.20;;;;;;;1.83;75.26;99052.31;4973645;28;20030;-64
2022/03/26 09:17:16;;;;;;;4.40;2.23;;;;;;;1.81;75.31;99057.72;4972929;28;20042;-64
2022/03/26 09:19:41;;;;;;;1.77;1.37;;;;;;;1.75;74.43;99065.34;4955578;28;20149;-63
2022/03/26 09:22:07;;;;;;;1.23;1.17;;;;;;;1.57;74.15;99051.38;4972979;28;20485;-64
2022/03/26 09:24:32;;;;;;;4.17;1.83;;;;;;;1.71;75.16;99070.03;4973145;28;20035;-64
2022/03/26 09:26:58;;;;;;;4.20;1.20;;;;;;;1.82;73.75;99072.47;4972837;28;20043;-61
2022/03/26 09:29:23;;;;;;;1.80;1.40;;;;;;;1.90;72.97;99069.09;4973410;28;20117;-65
2022/03/26 09:31:48;;;;;;;2.07;1.20;;;;;;;1.83;72.83;99078.56;4958487;28;20443;-69
2022/03/26 09:34:14;;;;;;;1.77;1.30;;;;;;;1.86;73.62;99076.47;4959618;28;20097;-65
2022/03/26 09:36:40;;;;;;;1.60;1.30;;;;;;;1.87;73.39;99085.16;4977060;28;20462;-67
2022/03/26 09:39:06;;;;;;;3.53;1.60;;;;;;;1.92;73.80;99090.78;4976901;28;20072;-67
2022/03/26 09:41:32;;;;;;;1.87;1.70;;;;;;;1.93;71.74;99104.75;4976401;28;20067;-64
2022/03/26 09:43:59;;;;;;;2.20;1.40;;;;;;;1.91;72.81;99111.94;4977144;28;20051;-69
2022/03/26 09:46:25;;;;;;;1.67;1.23;;;;;;;1.74;72.74;99113.56;4976478;28;20282;-68
2022/03/26 09:48:52;;;;;;;3.47;1.60;;;;;;;1.81;72.79;99117.25;4976555;28;20282;-68
2022/03/26 09:51:23;;;;;;;2.03;1.40;;;;;;;1.89;72.87;99132.25;4976329;28;20266;-70
2022/03/26 09:53:53;;;;;;;4.50;1.83;;;;;;;1.91;73.28;99139.00;4976965;28;20172;-68
2022/03/26 09:56:20;;;;;;;2.13;1.57;;;;;;;1.96;73.13;99144.66;4977054;28;20266;-71
2022/03/26 09:58:46;;;;;;;1.70;1.60;;;;;;;1.99;73.56;99159.28;4976949;28;20291;-64
2022/03/26 10:01:11;;;;;;;3.23;2.17;;;;;;;1.90;74.20;99144.41;4976558;28;20282;-64
2022/03/26 10:03:40;;;;;;;2.07;1.60;;;;;;;1.73;76.18;99170.44;4976280;28;20407;-65
2022/03/26 10:06:07;;;;;;;3.20;2.08;;;;;;;1.58;77.05;99178.97;4976300;28;20046;-70
2022/03/26 10:08:38;;;;;;;2.00;1.80;;;;;;;1.44;77.73;99182.84;4976194;28;20034;-72
2022/03/26 10:11:05;;;;;;;1.60;1.40;;;;;;;1.38;76.42;99179.00;4976066;28;20698;-66
2022/03/26 10:13:39;;;;;;;5.83;1.80;;;;;;;1.28;73.07;99204.44;4975846;28;20290;-71
2022/03/26 10:16:11;;;;;;;1.57;1.47;;;;;;;1.01;74.36;99199.13;4976792;28;20361;-77
2022/03/26 10:18:40;;;;;;;2.13;1.43;;;;;;;0.97;75.10;99208.22;4976174;28;20270;-71
2022/03/26 10:21:14;;;;;;;3.58;1.73;;;;;;;1.04;74.21;99204.06;4976053;28;20278;-70
2022/03/26 10:23:44;;;;;;;2.10;1.60;;;;;;;1.01;71.54;99206.97;4976045;28;20510;-69
2022/03/26 10:26:24;;;;;;;1.70;1.60;;;;;;;1.04;72.20;99227.66;4976308;28;20373;-69
2022/03/26 10:28:51;;;;;;;3.37;1.90;;;;;;;0.91;73.25;99234.03;4976293;28;20281;-69
2022/03/26 10:34:15;;;;;;;1.83;1.63;;;;;;;0.71;72.44;99253.31;4975687;28;20304;-69
2022/03/26 10:36:53;;;;;;;2.13;1.77;;;;;;;0.68;72.59;99263.25;4975997;28;20274;-67
2022/03/26 10:39:28;;;;;;;3.97;1.42;;;;;;;0.66;70.99;99270.44;4975971;28;20274;-67
2022/03/26 10:41:56;;;;;;;2.60;1.73;;;;;;;0.63;70.65;99260.22;4975268;28;20086;-64
2022/03/26 10:44:25;;;;;;;4.85;2.13;;;;;;;0.81;70.29;99266.44;4973537;28;20313;-68
2022/03/26 10:46:53;;;;;;;6.30;2.50;;;;;;;0.96;69.08;99261.63;4975533;28;20145;-65
2022/03/26 10:49:30;;;;;;;2.27;1.90;;;;;;;1.11;66.99;99275.94;4975955;28;20278;-66
2022/03/26 10:52:04;;;;;;;1.40;1.10;;;;;;;1.17;63.83;99280.66;4975693;28;20615;-65
2022/03/26 10:54:32;;;;;;;4.90;1.37;;;;;;;1.20;64.86;99275.97;4975417;28;20325;-66
2022/03/26 10:56:59;;;;;;;7.07;1.30;;;;;;;1.25;62.94;99293.91;4958094;28;20266;-65
2022/03/26 10:59:27;;;;;;;2.17;1.00;;;;;;;1.35;63.18;99307.81;4976231;28;20042;-70
2022/03/26 11:01:53;;;;;;;1.53;1.20;;;;;;;1.46;60.79;99291.13;4958575;28;20353;-71
2022/03/26 11:04:19;;;;;;;2.07;1.33;;;;;;;1.35;63.86;99292.09;4958280;28;20369;-72
2022/03/26 11:06:45;;;;;;;3.57;1.63;;;;;;;1.47;63.25;99325.09;4975311;28;20073;-72
2022/03/26 11:09:11;;;;;;;3.10;0.93;;;;;;;1.28;62.48;99329.50;4958319;28;20319;-70
2022/03/26 11:11:37;;;;;;;1.27;1.13;;;;;;;1.22;62.61;99315.16;4974826;28;20321;-66
2022/03/26 11:14:10;;;;;;;4.23;1.93;;;;;;;1.27;63.94;99331.31;4975251;28;20665;-69
2022/03/26 11:16:45;;;;;;;1.30;1.20;;;;;;;1.43;63.24;99331.56;4975276;28;20054;-67
2022/03/26 11:19:37;;;;;;;3.13;2.40;;;;;;;1.47;61.93;99337.38;4975015;28;20633;-72
2022/03/26 11:22:35;;;;;;;2.50;1.23;;;;;;;1.09;62.88;99343.44;4974747;28;20626;-68
2022/03/26 11:25:22;;;;;;;3.15;1.58;;;;;;;0.88;63.85;99368.00;4975138;28;20262;-69
2022/03/26 11:28:25;;;;;;;3.77;1.27;;;;;;;0.79;63.09;99368.78;4974685;28;20097;-72
2022/03/26 11:31:06;;;;;;;1.50;1.10;;;;;;;0.71;63.83;99378.28;4975037;28;20302;-72
2022/03/26 11:33:37;;;;;;;5.27;1.30;;;;;;;0.56;63.58;99364.69;4974782;28;20297;-70
2022/03/26 11:36:05;;;;;;;1.67;1.27;;;;;;;0.69;64.54;99393.31;4975297;28;20279;-72
2022/03/26 11:38:31;;;;;;;1.33;1.20;;;;;;;0.57;63.61;99398.63;4974616;28;20271;-69
2022/03/26 11:41:11;;;;;;;2.07;1.20;;;;;;;0.36;62.66;99442.38;4974669;28;20746;-69
2022/03/26 11:43:43;;;;;;;2.13;1.53;;;;;;;0.47;62.21;99420.50;4955553;29;20283;-71
2022/03/26 11:52:12;;;;;;;1.67;1.40;;;;;;;0.18;62.71;99444.75;4922773;29;20287;-73